Shokyu Maru — JG5288 — position and weather

sailwx.info

Track history (hours):
 
Tides and Currents Weather Stations Pressure Air Temp Water Temp Dewpoint Dewpoint Depression Visibility Wind Speed Wind Dir Waves Ship Positions

Shokyu Maru

Last reported at 2015-Mar-01 06:20 UTC. Time now 2015-Mar-01 08:29 UTC.
Position N 35°39' E 139°58'.

Length 91 m; draft 4 m.

Type: Tanker. MMSI: 431000253.

Date/timePositionNaut miles runAvg speedWind from/ knotsBaromVisibWave heightAir tempDewpointWater temp
2015-Mar-01 06:20N 35°39' E 139°58'9 1.2
2015-Feb-28 22:21N 35°30' E 140°02'2 2.5
2015-Feb-28 21:33N 35°32' E 140°01'2 0.1
2015-Feb-27 22:26N 35°34' E 140°01'5 2.2
2015-Feb-27 20:04N 35°35' E 139°55'0 0.0
2015-Feb-27 19:30N 35°35' E 139°55'0 0.0
2015-Feb-27 18:23N 35°35' E 139°55'0 0.0
2015-Feb-27 17:30N 35°35' E 139°55'0 0.0
2015-Feb-27 16:25N 35°35' E 139°55'0 0.0
2015-Feb-27 15:24N 35°35' E 139°55'0 0.0
2015-Feb-27 14:32N 35°35' E 139°55'0 0.0
2015-Feb-27 12:18N 35°35' E 139°55'4 1.4
2015-Feb-27 09:32N 35°38' E 139°59'7 1.4
2015-Feb-27 04:29N 35°32' E 140°03'0 0.0
2015-Feb-27 00:06N 35°32' E 140°03'1 2.0
2015-Feb-26 23:33N 35°32' E 140°02'6 3.1
2015-Feb-26 21:33N 35°35' E 139°55'0 0.1
2015-Feb-26 20:33N 35°35' E 139°55'0 0.0
2015-Feb-26 08:03N 35°35' E 139°55'4 8.5
2015-Feb-26 07:32N 35°38' E 139°59'6 1.1
2015-Feb-26 01:33N 35°32' E 139°60'0 0.0
2015-Feb-25 14:33N 35°31' E 139°59'0 0.0
2015-Feb-25 12:33N 35°32' E 139°59'5 2.2
2015-Feb-25 10:29N 35°35' E 139°56'2 0.3
2015-Feb-25 04:17N 35°35' E 139°58'5 1.0
2015-Feb-24 23:32N 35°32' E 140°02'7 5.6
2015-Feb-24 22:20N 35°35' E 139°55'0 0.0
2015-Feb-24 21:20N 35°35' E 139°55'0 0.0
2015-Feb-24 20:34N 35°35' E 139°55'0 0.0
2015-Feb-24 19:33N 35°35' E 139°55'0 0.0
2015-Feb-24 18:33N 35°35' E 139°55'0 0.0
2015-Feb-24 17:17N 35°35' E 139°55'0 0.0
2015-Feb-24 16:33N 35°35' E 139°55'0 0.0
2015-Feb-24 15:20N 35°35' E 139°55'0 0.0
2015-Feb-24 14:32N 35°35' E 139°55'0 0.0
2015-Feb-24 13:33N 35°35' E 139°55'0 0.0
2015-Feb-24 12:32N 35°35' E 139°55'4 3.2
2015-Feb-24 11:18N 35°38' E 139°59'3 0.6
2015-Feb-24 06:33N 35°36' E 139°56'1 0.6
2015-Feb-24 05:25N 35°36' E 139°57'1 0.6
2015-Feb-24 04:33N 35°36' E 139°58'6 1.1
2015-Feb-23 23:33N 35°32' E 140°03'9 2.9
2015-Feb-23 20:20N 35°41' E 139°59'0 0.0
2015-Feb-23 19:20N 35°41' E 139°59'0 0.0
2015-Feb-23 11:26N 35°41' E 139°59'0 0.0
2015-Feb-23 09:05N 35°41' E 139°59'0 0.0
2015-Feb-23 08:08N 35°41' E 139°59'0 0.0
2015-Feb-23 07:20N 35°41' E 139°59'0 0.0
2015-Feb-23 06:08N 35°41' E 139°59'0 0.0
2015-Feb-23 05:14N 35°41' E 139°59'8 7.4
2015-Feb-23 04:08N 35°33' E 139°56'611.1
2015-Feb-23 03:33N 35°28' E 139°51'7 7.4
2015-Feb-23 02:33N 35°24' E 139°44'0 0.0
2015-Feb-23 01:33N 35°24' E 139°44'0 0.0
2015-Feb-23 00:30N 35°24' E 139°44'0 0.0
2015-Feb-22 23:33N 35°24' E 139°44'1 1.3
2015-Feb-22 22:33N 35°24' E 139°45'1110.5
2015-Feb-22 21:32N 35°33' E 139°54'9 0.4
2015-Feb-22 00:04N 35°41' E 139°59'0 0.0
2015-Feb-21 04:22N 35°41' E 139°59'6 5.9
2015-Feb-21 03:21N 35°36' E 139°55'4 4.9
2015-Feb-21 02:31N 35°39' E 139°58'2 0.4
2015-Feb-20 22:14N 35°40' E 139°57'5 7.0
2015-Feb-20 21:33N 35°36' E 139°55'0 0.1
2015-Feb-20 20:16N 35°36' E 139°55'0 0.0
2015-Feb-20 19:31N 35°36' E 139°55'0 0.1
2015-Feb-20 18:33N 35°36' E 139°55'0 0.0
2015-Feb-20 17:33N 35°36' E 139°55'0 0.0
2015-Feb-20 16:33N 35°36' E 139°55'0 0.0
2015-Feb-20 15:34N 35°36' E 139°55'0 0.0
2015-Feb-20 14:33N 35°36' E 139°55'0 0.0
2015-Feb-20 13:33N 35°36' E 139°55'0 0.0
2015-Feb-20 12:33N 35°36' E 139°55'6 5.8
2015-Feb-20 11:33N 35°31' E 139°51'1010.0
2015-Feb-20 10:33N 35°24' E 139°42'2 2.1
2015-Feb-20 09:32N 35°24' E 139°40'0 0.0
2015-Feb-20 08:26N 35°24' E 139°40'0 0.0
2015-Feb-20 07:32N 35°24' E 139°40'0 0.0
2015-Feb-20 06:32N 35°24' E 139°40'1 0.8
2015-Feb-20 05:33N 35°24' E 139°40'1010.1
2015-Feb-20 04:33N 35°30' E 139°50'1110.8
2015-Feb-20 03:32N 35°39' E 139°58'1 0.2
2015-Feb-19 21:21N 35°38' E 139°58'3 2.3
2015-Feb-19 20:05N 35°36' E 139°55'0 0.0
2015-Feb-19 16:05N 35°36' E 139°55'0 0.0
2015-Feb-19 15:29N 35°36' E 139°55'0 0.1
2015-Feb-19 14:32N 35°36' E 139°55'0 0.0
2015-Feb-19 13:32N 35°36' E 139°55'0 0.0
2015-Feb-19 12:17N 35°36' E 139°55'0 0.0
2015-Feb-19 11:29N 35°36' E 139°55'0 0.0
2015-Feb-19 10:32N 35°36' E 139°55'0 0.0
2015-Feb-19 09:32N 35°36' E 139°55'0 0.0
2015-Feb-19 08:29N 35°36' E 139°55'5 5.6
2015-Feb-19 07:31N 35°32' E 139°59'  
Track history (hours):
 
Tides and Currents Weather Stations Pressure Air Temp Water Temp Dewpoint Dewpoint Depression Visibility Wind Speed Wind Dir Waves Ship Positions

Shokyu Maru

Last reported at 2015-Mar-01 06:20 UTC. Time now 2015-Mar-01 08:29 UTC.
Position N 35°39' E 139°58'.

Length 91 m; draft 4 m.

Type: Tanker. MMSI: 431000253.

Date/timePositionNaut miles runAvg speedWind from/ knotsBaromVisibWave heightAir tempDewpointWater temp
2015-Mar-01 06:20N 35°39' E 139°58'9 1.2
2015-Feb-28 22:21N 35°30' E 140°02'2 2.5
2015-Feb-28 21:33N 35°32' E 140°01'2 0.1
2015-Feb-27 22:26N 35°34' E 140°01'5 2.2
2015-Feb-27 20:04N 35°35' E 139°55'0 0.0
2015-Feb-27 19:30N 35°35' E 139°55'0 0.0
2015-Feb-27 18:23N 35°35' E 139°55'0 0.0
2015-Feb-27 17:30N 35°35' E 139°55'0 0.0
2015-Feb-27 16:25N 35°35' E 139°55'0 0.0
2015-Feb-27 15:24N 35°35' E 139°55'0 0.0
2015-Feb-27 14:32N 35°35' E 139°55'0 0.0
2015-Feb-27 12:18N 35°35' E 139°55'4 1.4
2015-Feb-27 09:32N 35°38' E 139°59'7 1.4
2015-Feb-27 04:29N 35°32' E 140°03'0 0.0
2015-Feb-27 00:06N 35°32' E 140°03'1 2.0
2015-Feb-26 23:33N 35°32' E 140°02'6 3.1
2015-Feb-26 21:33N 35°35' E 139°55'0 0.1
2015-Feb-26 20:33N 35°35' E 139°55'0 0.0
2015-Feb-26 08:03N 35°35' E 139°55'4 8.5
2015-Feb-26 07:32N 35°38' E 139°59'6 1.1
2015-Feb-26 01:33N 35°32' E 139°60'0 0.0
2015-Feb-25 14:33N 35°31' E 139°59'0 0.0
2015-Feb-25 12:33N 35°32' E 139°59'5 2.2
2015-Feb-25 10:29N 35°35' E 139°56'2 0.3
2015-Feb-25 04:17N 35°35' E 139°58'5 1.0
2015-Feb-24 23:32N 35°32' E 140°02'7 5.6
2015-Feb-24 22:20N 35°35' E 139°55'0 0.0
2015-Feb-24 21:20N 35°35' E 139°55'0 0.0
2015-Feb-24 20:34N 35°35' E 139°55'0 0.0
2015-Feb-24 19:33N 35°35' E 139°55'0 0.0
2015-Feb-24 18:33N 35°35' E 139°55'0 0.0
2015-Feb-24 17:17N 35°35' E 139°55'0 0.0
2015-Feb-24 16:33N 35°35' E 139°55'0 0.0
2015-Feb-24 15:20N 35°35' E 139°55'0 0.0
2015-Feb-24 14:32N 35°35' E 139°55'0 0.0
2015-Feb-24 13:33N 35°35' E 139°55'0 0.0
2015-Feb-24 12:32N 35°35' E 139°55'4 3.2
2015-Feb-24 11:18N 35°38' E 139°59'3 0.6
2015-Feb-24 06:33N 35°36' E 139°56'1 0.6
2015-Feb-24 05:25N 35°36' E 139°57'1 0.6
2015-Feb-24 04:33N 35°36' E 139°58'6 1.1
2015-Feb-23 23:33N 35°32' E 140°03'9 2.9
2015-Feb-23 20:20N 35°41' E 139°59'0 0.0
2015-Feb-23 19:20N 35°41' E 139°59'0 0.0
2015-Feb-23 11:26N 35°41' E 139°59'0 0.0
2015-Feb-23 09:05N 35°41' E 139°59'0 0.0
2015-Feb-23 08:08N 35°41' E 139°59'0 0.0
2015-Feb-23 07:20N 35°41' E 139°59'0 0.0
2015-Feb-23 06:08N 35°41' E 139°59'0 0.0
2015-Feb-23 05:14N 35°41' E 139°59'8 7.4
2015-Feb-23 04:08N 35°33' E 139°56'611.1
2015-Feb-23 03:33N 35°28' E 139°51'7 7.4
2015-Feb-23 02:33N 35°24' E 139°44'0 0.0
2015-Feb-23 01:33N 35°24' E 139°44'0 0.0
2015-Feb-23 00:30N 35°24' E 139°44'0 0.0
2015-Feb-22 23:33N 35°24' E 139°44'1 1.3
2015-Feb-22 22:33N 35°24' E 139°45'1110.5
2015-Feb-22 21:32N 35°33' E 139°54'9 0.4
2015-Feb-22 00:04N 35°41' E 139°59'0 0.0
2015-Feb-21 04:22N 35°41' E 139°59'6 5.9
2015-Feb-21 03:21N 35°36' E 139°55'4 4.9
2015-Feb-21 02:31N 35°39' E 139°58'2 0.4
2015-Feb-20 22:14N 35°40' E 139°57'5 7.0
2015-Feb-20 21:33N 35°36' E 139°55'0 0.1
2015-Feb-20 20:16N 35°36' E 139°55'0 0.0
2015-Feb-20 19:31N 35°36' E 139°55'0 0.1
2015-Feb-20 18:33N 35°36' E 139°55'0 0.0
2015-Feb-20 17:33N 35°36' E 139°55'0 0.0
2015-Feb-20 16:33N 35°36' E 139°55'0 0.0
2015-Feb-20 15:34N 35°36' E 139°55'0 0.0
2015-Feb-20 14:33N 35°36' E 139°55'0 0.0
2015-Feb-20 13:33N 35°36' E 139°55'0 0.0
2015-Feb-20 12:33N 35°36' E 139°55'6 5.8
2015-Feb-20 11:33N 35°31' E 139°51'1010.0
2015-Feb-20 10:33N 35°24' E 139°42'2 2.1
2015-Feb-20 09:32N 35°24' E 139°40'0 0.0
2015-Feb-20 08:26N 35°24' E 139°40'0 0.0
2015-Feb-20 07:32N 35°24' E 139°40'0 0.0
2015-Feb-20 06:32N 35°24' E 139°40'1 0.8
2015-Feb-20 05:33N 35°24' E 139°40'1010.1
2015-Feb-20 04:33N 35°30' E 139°50'1110.8
2015-Feb-20 03:32N 35°39' E 139°58'1 0.2
2015-Feb-19 21:21N 35°38' E 139°58'3 2.3
2015-Feb-19 20:05N 35°36' E 139°55'0 0.0
2015-Feb-19 16:05N 35°36' E 139°55'0 0.0
2015-Feb-19 15:29N 35°36' E 139°55'0 0.1
2015-Feb-19 14:32N 35°36' E 139°55'0 0.0
2015-Feb-19 13:32N 35°36' E 139°55'0 0.0
2015-Feb-19 12:17N 35°36' E 139°55'0 0.0
2015-Feb-19 11:29N 35°36' E 139°55'0 0.0
2015-Feb-19 10:32N 35°36' E 139°55'0 0.0
2015-Feb-19 09:32N 35°36' E 139°55'0 0.0
2015-Feb-19 08:29N 35°36' E 139°55'5 5.6
2015-Feb-19 07:31N 35°32' E 139°59'  

Dump ship's entire track history